Time;durP1;ratioP1;P1;durP2;ratioP2;P2;SDS_P1;SDS_P2;PMS_P1;PMS_P2;Temp;Humidity;BMP_temperature;BMP_pressure;BME280_temperature;BME280_humidity;BME280_pressure;Samples;Min_cycle;Max_cycle;Signal;HPM_P1;HPM_P2
2021/03/19 00:00:22;;;;;;;7.13;6.35;;;;;;;3.89;68.76;101337.69;686836;28;22398;-63
2021/03/19 00:00:43;;;;;;;6.65;6.00;;;;;;;3.86;68.87;101330.75;684391;28;86702;-65
2021/03/19 00:01:04;;;;;;;6.63;6.03;;;;;;;3.88;69.00;101342.16;686821;28;22405;-65
2021/03/19 00:01:26;;;;;;;6.60;6.00;;;;;;;3.88;69.04;101342.16;686951;28;22412;-64
2021/03/19 00:01:47;;;;;;;6.78;6.15;;;;;;;3.89;69.03;101345.72;686058;28;46346;-64
2021/03/19 00:02:08;;;;;;;6.95;6.25;;;;;;;3.87;69.13;101340.47;686690;28;22524;-64
2021/03/19 00:02:29;;;;;;;8.43;6.93;;;;;;;3.88;69.13;101330.63;686213;28;21519;-64
2021/03/19 00:02:52;;;;;;;6.93;6.22;;;;;;;3.88;69.16;101341.31;686748;28;22234;-64
2021/03/19 00:03:14;;;;;;;7.70;6.40;;;;;;;3.88;69.04;101344.00;685358;28;69407;-64
2021/03/19 00:03:35;;;;;;;6.80;6.10;;;;;;;3.87;69.08;101344.94;687136;28;16130;-63
2021/03/19 00:03:56;;;;;;;6.82;6.05;;;;;;;3.86;69.15;101344.13;687516;28;1769;-65
2021/03/19 00:04:17;;;;;;;6.45;5.85;;;;;;;3.88;69.21;101346.66;686805;28;23411;-64
2021/03/19 00:04:38;;;;;;;6.97;6.28;;;;;;;3.86;69.28;101341.44;687017;28;23304;-63
2021/03/19 00:04:59;;;;;;;6.72;6.13;;;;;;;3.87;69.20;101348.50;686822;28;21584;-63
2021/03/19 00:05:23;;;;;;;6.40;5.80;;;;;;;3.87;69.19;101344.94;686000;28;44649;-64
2021/03/19 00:05:44;;;;;;;6.40;5.80;;;;;;;3.86;69.09;101346.78;684621;28;69450;-63
2021/03/19 00:06:06;;;;;;;6.22;5.63;;;;;;;3.86;69.25;101343.28;687046;28;20284;-64
2021/03/19 00:06:28;;;;;;;6.10;5.50;;;;;;;3.86;69.24;101348.63;686441;28;37920;-64
2021/03/19 00:06:50;;;;;;;5.57;5.07;;;;;;;3.84;69.36;101340.72;687882;28;897;-62
2021/03/19 00:07:11;;;;;;;5.88;5.28;;;;;;;3.86;69.31;101345.94;687086;28;19830;-64
2021/03/19 00:07:41;;;;;;;6.15;5.55;;;;;;;3.84;69.21;101343.38;685310;28;40065;-65
2021/03/19 00:08:03;;;;;;;6.30;5.70;;;;;;;3.86;69.31;101348.63;682887;28;134913;-62
2021/03/19 00:08:24;;;;;;;6.50;5.43;;;;;;;3.85;69.18;101347.75;685992;28;47486;-64
2021/03/19 00:08:45;;;;;;;5.55;5.05;;;;;;;3.87;69.25;101350.31;687500;28;889;-64
2021/03/19 00:09:09;;;;;;;5.45;5.05;;;;;;;3.88;69.28;101350.19;686560;28;22396;-64
2021/03/19 00:09:30;;;;;;;6.40;5.20;;;;;;;3.87;69.18;101345.81;685134;28;68484;-63
2021/03/19 00:09:51;;;;;;;5.53;5.03;;;;;;;3.88;69.24;101344.84;686917;28;21368;-63
2021/03/19 00:10:17;;;;;;;5.70;5.20;;;;;;;3.88;69.12;101342.16;686562;28;21565;-64
2021/03/19 00:10:39;;;;;;;5.22;4.82;;;;;;;3.87;69.65;101343.16;682489;28;138161;-63
2021/03/19 00:11:00;;;;;;;5.50;4.85;;;;;;;3.89;69.06;101340.38;688422;28;33224;-61
2021/03/19 00:11:21;;;;;;;5.35;4.88;;;;;;;3.90;69.21;101347.38;689231;28;24322;-64
2021/03/19 00:11:43;;;;;;;5.53;5.03;;;;;;;3.89;69.20;101343.88;689278;28;23555;-63
2021/03/19 00:12:04;;;;;;;5.65;5.10;;;;;;;3.89;68.90;101337.69;688493;28;46355;-63
2021/03/19 00:12:26;;;;;;;5.68;5.18;;;;;;;3.88;69.05;101338.66;688594;28;46361;-63
2021/03/19 00:12:47;;;;;;;5.30;4.90;;;;;;;3.88;69.22;101344.00;688349;28;23515;-64
2021/03/19 00:13:09;;;;;;;5.47;4.97;;;;;;;3.89;69.13;101343.03;686499;28;22252;-63
2021/03/19 00:13:31;;;;;;;5.55;4.90;;;;;;;3.89;68.86;101343.88;686151;28;46413;-64
2021/03/19 00:13:52;;;;;;;5.53;5.03;;;;;;;3.86;69.04;101338.78;686278;28;42216;-63
2021/03/19 00:14:13;;;;;;;5.05;4.65;;;;;;;3.86;69.10;101341.44;686546;28;22368;-64
2021/03/19 00:14:34;;;;;;;5.65;5.15;;;;;;;3.86;69.16;101338.78;686680;28;23784;-62
2021/03/19 00:14:55;;;;;;;5.53;5.03;;;;;;;3.87;69.23;101336.94;687062;28;22323;-64
2021/03/19 00:15:18;;;;;;;5.78;5.28;;;;;;;3.86;69.29;101328.06;687071;28;23430;-64
2021/03/19 00:15:39;;;;;;;5.68;5.15;;;;;;;3.87;69.21;101328.91;684545;28;63123;-62
2021/03/19 00:16:01;;;;;;;5.47;5.03;;;;;;;3.87;69.26;101339.59;685704;28;47626;-63
2021/03/19 00:16:22;;;;;;;5.78;5.28;;;;;;;3.85;69.35;101331.72;686915;28;22420;-63
2021/03/19 00:16:43;;;;;;;5.90;5.40;;;;;;;3.84;69.61;101339.84;686436;28;21615;-62
2021/03/19 00:17:04;;;;;;;5.78;5.20;;;;;;;3.84;69.33;101330.03;687249;28;1929;-62
2021/03/19 00:17:25;;;;;;;6.10;5.47;;;;;;;3.87;69.54;101340.47;686466;28;22353;-61
2021/03/19 00:17:47;;;;;;;7.32;5.82;;;;;;;3.82;69.47;101318.59;686366;28;22401;-62
2021/03/19 00:18:08;;;;;;;7.20;5.70;;;;;;;3.89;69.57;101327.00;686916;28;19319;-63
2021/03/19 00:18:30;;;;;;;7.00;6.07;;;;;;;3.89;69.23;101329.69;685990;28;45391;-63
2021/03/19 00:18:51;;;;;;;6.90;6.20;;;;;;;3.90;69.40;101332.22;687982;28;20879;-63
2021/03/19 00:19:12;;;;;;;6.50;5.90;;;;;;;3.90;69.15;101332.22;686429;28;23510;-64
2021/03/19 00:19:33;;;;;;;6.00;5.40;;;;;;;3.93;69.11;101332.00;686023;28;44416;-64
2021/03/19 00:19:54;;;;;;;5.72;5.00;;;;;;;3.92;69.24;101332.94;687123;28;15189;-64
2021/03/19 00:20:16;;;;;;;5.70;5.10;;;;;;;3.91;69.16;101325.06;687087;28;20973;-63
2021/03/19 00:20:39;;;;;;;6.18;5.57;;;;;;;3.91;69.12;101330.41;685647;28;47280;-62
2021/03/19 00:21:01;;;;;;;6.55;5.70;;;;;;;3.89;69.29;101324.31;684764;28;67519;-61
2021/03/19 00:21:22;;;;;;;5.53;5.03;;;;;;;3.93;69.07;101339.13;686639;28;23447;-63
2021/03/19 00:21:43;;;;;;;5.60;5.10;;;;;;;3.93;69.04;101328.44;686695;28;20882;-64
2021/03/19 00:22:04;;;;;;;5.38;4.88;;;;;;;3.92;68.98;101335.63;687064;28;22241;-63
2021/03/19 00:22:26;;;;;;;6.22;5.25;;;;;;;3.92;68.98;101327.59;686066;28;21519;-62
2021/03/19 00:22:47;;;;;;;5.97;5.35;;;;;;;3.94;69.02;101341.69;685784;28;45278;-63
2021/03/19 00:23:09;;;;;;;6.13;5.53;;;;;;;3.95;68.93;101343.41;686743;28;23442;-60
2021/03/19 00:23:31;;;;;;;6.32;5.72;;;;;;;3.94;68.84;101335.50;684851;28;70478;-63
2021/03/19 00:23:52;;;;;;;6.15;5.55;;;;;;;3.95;68.81;101337.22;687015;28;18326;-63
2021/03/19 00:24:13;;;;;;;6.60;5.80;;;;;;;3.95;68.95;101342.56;686689;28;20443;-62
2021/03/19 00:24:34;;;;;;;6.35;5.75;;;;;;;3.94;68.58;101341.69;686299;28;23492;-63
2021/03/19 00:24:55;;;;;;;5.82;5.32;;;;;;;3.94;68.73;101339.03;686240;28;46701;-63
2021/03/19 00:25:17;;;;;;;5.80;5.30;;;;;;;3.94;68.89;101340.84;687546;28;7965;-63
2021/03/19 00:25:38;;;;;;;5.85;5.20;;;;;;;3.95;68.74;101345.25;686408;28;22578;-64
2021/03/19 00:26:00;;;;;;;6.55;5.95;;;;;;;3.94;68.79;101346.19;686550;28;36097;-64
2021/03/19 00:26:25;;;;;;;6.28;5.65;;;;;;;3.93;68.59;101342.69;686464;28;38083;-64
2021/03/19 00:26:47;;;;;;;6.07;5.47;;;;;;;3.93;68.71;101349.81;686455;28;30937;-63
2021/03/19 00:27:08;;;;;;;6.30;5.70;;;;;;;3.90;68.53;101352.72;687185;28;15746;-65
2021/03/19 00:27:29;;;;;;;6.38;5.72;;;;;;;3.91;68.44;101354.44;687255;28;8760;-63
2021/03/19 00:27:50;;;;;;;6.20;5.60;;;;;;;3.89;68.43;101349.22;687138;28;18006;-61
2021/03/19 00:28:14;;;;;;;6.18;5.57;;;;;;;3.88;68.57;101346.66;686732;28;28158;-65
2021/03/19 00:28:35;;;;;;;6.28;5.68;;;;;;;3.90;68.64;101348.25;685421;28;69493;-62
2021/03/19 00:28:57;;;;;;;7.30;5.72;;;;;;;3.89;68.68;101349.22;686547;28;22394;-65
2021/03/19 00:29:18;;;;;;;7.65;5.70;;;;;;;3.90;68.63;101350.94;685810;28;46454;-63
2021/03/19 00:29:39;;;;;;;6.25;5.47;;;;;;;3.89;68.42;101345.72;686426;28;23249;-64
2021/03/19 00:30:00;;;;;;;6.55;5.47;;;;;;;3.89;68.46;101343.88;683697;28;19944;-64
2021/03/19 00:30:22;;;;;;;6.15;5.55;;;;;;;3.88;68.53;101347.50;684232;28;22368;-64
2021/03/19 00:30:46;;;;;;;6.05;5.45;;;;;;;3.89;68.52;101348.38;682083;28;67518;-65
2021/03/19 00:31:07;;;;;;;6.22;5.50;;;;;;;3.89;68.61;101349.22;681787;28;69491;-64
2021/03/19 00:31:28;;;;;;;5.72;5.22;;;;;;;3.89;68.60;101354.56;683985;28;23491;-64
2021/03/19 00:31:49;;;;;;;5.85;5.35;;;;;;;3.88;68.62;101347.50;684927;28;23422;-63
2021/03/19 00:32:10;;;;;;;6.85;6.03;;;;;;;3.88;68.72;101350.19;686942;28;21770;-64
2021/03/19 00:32:31;;;;;;;7.03;6.00;;;;;;;3.87;68.50;101348.50;686093;28;46363;-63
2021/03/19 00:32:53;;;;;;;6.75;5.85;;;;;;;3.88;68.68;101349.34;686595;28;22445;-64
2021/03/19 00:33:15;;;;;;;6.68;5.75;;;;;;;3.87;68.72;101351.16;686954;28;22423;-64
2021/03/19 00:33:36;;;;;;;6.60;5.90;;;;;;;3.86;68.87;101344.13;689571;28;7442;-63
2021/03/19 00:33:57;;;;;;;6.55;5.70;;;;;;;3.85;68.63;101353.09;689987;28;4090;-63
2021/03/19 00:34:18;;;;;;;6.63;5.70;;;;;;;3.84;68.85;101347.88;689153;28;22416;-64
2021/03/19 00:34:39;;;;;;;6.00;5.40;;;;;;;3.84;68.74;101351.41;688986;28;23580;-63
2021/03/19 00:35:00;;;;;;;6.43;5.78;;;;;;;3.84;68.89;101348.72;689372;28;13685;-63
2021/03/19 00:35:21;;;;;;;6.47;5.65;;;;;;;3.84;68.80;101350.53;688702;28;23906;-65
2021/03/19 00:35:43;;;;;;;6.22;5.63;;;;;;;3.83;68.82;101349.69;686214;28;22424;-61
2021/03/19 00:36:05;;;;;;;6.47;5.82;;;;;;;3.81;68.81;101348.97;686596;28;22418;-65
2021/03/19 00:36:29;;;;;;;6.10;5.50;;;;;;;3.81;68.87;101354.31;685555;28;60796;-63
2021/03/19 00:36:54;;;;;;;5.70;5.20;;;;;;;3.81;68.74;101356.13;686461;28;37832;-63
2021/03/19 00:37:16;;;;;;;5.82;5.32;;;;;;;3.80;68.93;101347.25;685961;28;23548;-65
2021/03/19 00:37:38;;;;;;;6.28;5.68;;;;;;;3.80;69.03;101352.59;687675;28;4518;-63
2021/03/19 00:37:59;;;;;;;6.15;5.57;;;;;;;3.79;69.02;101348.22;684991;28;69428;-63
2021/03/19 00:38:20;;;;;;;7.82;5.80;;;;;;;3.78;68.88;101352.72;688276;28;835;-62
2021/03/19 00:38:42;;;;;;;8.13;5.70;;;;;;;3.77;68.97;101343.00;687349;28;13259;-63
2021/03/19 00:39:04;;;;;;;6.70;5.63;;;;;;;3.78;69.00;101347.38;686801;28;22247;-61
2021/03/19 00:39:25;;;;;;;6.32;5.72;;;;;;;3.77;69.11;101345.66;685453;28;42375;-63
2021/03/19 00:39:46;;;;;;;6.45;5.80;;;;;;;3.77;68.88;101345.66;686932;28;24359;-62
2021/03/19 00:40:09;;;;;;;6.15;5.55;;;;;;;3.76;69.20;101351.13;686929;28;21546;-62
2021/03/19 00:40:31;;;;;;;6.90;6.18;;;;;;;3.77;69.15;101352.84;683840;28;92119;-63
2021/03/19 00:40:52;;;;;;;7.00;6.07;;;;;;;3.73;69.21;101338.00;686809;28;21551;-62
2021/03/19 00:41:13;;;;;;;7.05;6.25;;;;;;;3.78;69.37;101347.38;686180;28;22362;-62
2021/03/19 00:41:34;;;;;;;7.18;6.22;;;;;;;3.76;69.16;101354.66;685648;28;44107;-63
2021/03/19 00:41:56;;;;;;;6.45;5.82;;;;;;;3.75;69.19;101352.94;686914;28;23299;-62
2021/03/19 00:42:17;;;;;;;6.85;6.07;;;;;;;3.76;69.19;101348.44;686640;28;22397;-63
2021/03/19 00:42:38;;;;;;;6.82;6.07;;;;;;;3.76;69.20;101354.66;684052;28;23101;-62
2021/03/19 00:43:00;;;;;;;7.45;5.97;;;;;;;3.75;69.22;101355.63;683529;28;46209;-63
2021/03/19 00:43:21;;;;;;;7.25;6.00;;;;;;;3.76;69.27;101348.44;686391;28;24233;-63
2021/03/19 00:43:42;;;;;;;6.68;5.93;;;;;;;3.75;69.20;101352.13;686066;28;41097;-62
2021/03/19 00:44:04;;;;;;;7.05;5.82;;;;;;;3.74;69.37;101356.59;686193;28;20336;-63
2021/03/19 00:44:25;;;;;;;6.80;6.10;;;;;;;3.75;69.24;101360.13;686570;28;14371;-62
2021/03/19 00:44:46;;;;;;;6.57;5.93;;;;;;;3.74;69.53;101361.09;687158;28;7687;-61
2021/03/19 00:45:09;;;;;;;6.97;6.20;;;;;;;3.74;69.57;101353.06;685960;28;46458;-63
2021/03/19 00:45:31;;;;;;;6.72;6.00;;;;;;;3.70;69.43;101355.13;685006;28;66910;-63
2021/03/19 00:45:52;;;;;;;7.72;6.07;;;;;;;3.71;69.48;101355.97;685974;28;22407;-63
2021/03/19 00:46:13;;;;;;;7.53;5.97;;;;;;;3.70;69.67;101364.94;686319;28;22326;-62
2021/03/19 00:46:34;;;;;;;6.90;5.85;;;;;;;3.70;69.71;101351.59;686485;28;23115;-63
2021/03/19 00:46:55;;;;;;;7.00;5.93;;;;;;;3.67;69.67;101355.38;685685;28;46128;-63
2021/03/19 00:47:16;;;;;;;7.53;6.30;;;;;;;3.69;69.82;101355.25;686743;28;22398;-62
2021/03/19 00:47:38;;;;;;;7.40;6.55;;;;;;;3.68;69.70;101357.06;686666;28;23415;-62
2021/03/19 00:47:59;;;;;;;6.95;6.25;;;;;;;3.67;69.65;101351.81;686818;28;23420;-63
2021/03/19 00:48:20;;;;;;;7.50;5.93;;;;;;;3.68;69.80;101357.06;686742;28;21322;-63
2021/03/19 00:48:42;;;;;;;7.03;6.00;;;;;;;3.69;69.63;101357.94;685772;28;44047;-63
2021/03/19 00:49:03;;;;;;;8.18;6.55;;;;;;;3.68;69.85;101351.72;686773;28;21478;-63
2021/03/19 00:49:24;;;;;;;7.60;6.28;;;;;;;3.70;69.76;101359.59;686509;28;22332;-63
2021/03/19 00:49:45;;;;;;;7.20;6.15;;;;;;;3.68;69.72;101359.72;686099;28;46028;-63
2021/03/19 00:50:09;;;;;;;7.07;6.28;;;;;;;3.70;69.79;101351.59;686781;28;22410;-62
2021/03/19 00:50:32;;;;;;;7.20;6.38;;;;;;;3.69;69.81;101353.41;684478;28;90892;-63
2021/03/19 00:50:55;;;;;;;7.50;6.47;;;;;;;3.68;69.82;101359.72;684669;28;70214;-63
2021/03/19 00:51:16;;;;;;;7.22;6.47;;;;;;;3.69;69.75;101364.09;685399;28;46457;-62
2021/03/19 00:51:37;;;;;;;7.93;6.57;;;;;;;3.69;69.83;101366.78;686775;28;21509;-61
2021/03/19 00:51:58;;;;;;;7.55;6.25;;;;;;;3.69;69.80;101364.09;685582;28;46429;-62
2021/03/19 00:52:19;;;;;;;8.88;6.93;;;;;;;3.71;69.79;101369.34;686514;28;22397;-61
2021/03/19 00:52:41;;;;;;;8.48;6.78;;;;;;;3.71;69.79;101364.00;686493;28;21522;-62
2021/03/19 00:53:03;;;;;;;8.45;6.60;;;;;;;3.73;69.78;101376.28;685759;28;46384;-61
2021/03/19 00:53:24;;;;;;;7.93;6.70;;;;;;;3.74;69.96;101374.44;686192;28;21550;-63
2021/03/19 00:53:45;;;;;;;7.43;6.73;;;;;;;3.74;69.81;101371.78;687113;28;17425;-62
2021/03/19 00:54:06;;;;;;;7.30;6.60;;;;;;;3.75;69.75;101365.47;686241;28;37407;-61
2021/03/19 00:54:27;;;;;;;7.47;6.70;;;;;;;3.76;69.90;101364.47;686251;28;23484;-63
2021/03/19 00:54:49;;;;;;;8.27;6.80;;;;;;;3.76;69.85;101367.16;687009;28;23540;-63
2021/03/19 00:55:12;;;;;;;9.48;7.40;;;;;;;3.77;69.86;101368.88;686863;28;21624;-62
2021/03/19 00:55:33;;;;;;;7.45;6.65;;;;;;;3.78;69.73;101367.91;684621;28;75625;-62
2021/03/19 00:55:56;;;;;;;8.38;7.05;;;;;;;3.78;69.94;101362.56;686024;28;21493;-63
2021/03/19 00:56:17;;;;;;;8.43;6.97;;;;;;;3.78;69.90;101366.06;686267;28;46273;-63
2021/03/19 00:56:38;;;;;;;9.73;7.20;;;;;;;3.79;69.86;101361.56;686112;28;46328;-62
2021/03/19 00:56:59;;;;;;;8.85;6.97;;;;;;;3.80;69.78;101368.63;687050;28;22378;-62
2021/03/19 00:57:20;;;;;;;7.50;6.60;;;;;;;3.80;69.62;101363.28;686798;28;22434;-63
2021/03/19 00:57:41;;;;;;;7.93;6.90;;;;;;;3.82;69.64;101374.69;686669;28;22391;-62
2021/03/19 00:58:04;;;;;;;7.72;6.70;;;;;;;3.79;69.76;101365.13;686712;28;21546;-62
2021/03/19 00:58:25;;;;;;;7.75;6.95;;;;;;;3.81;69.61;101369.47;685279;28;67480;-62
2021/03/19 00:58:46;;;;;;;8.60;7.20;;;;;;;3.82;69.49;101364.00;686748;28;22210;-62
2021/03/19 00:59:07;;;;;;;8.63;6.80;;;;;;;3.82;69.67;101366.69;686384;28;21558;-62
2021/03/19 00:59:28;;;;;;;8.73;6.95;;;;;;;3.83;69.60;101367.56;686805;28;23470;-63
2021/03/19 00:59:50;;;;;;;8.05;7.05;;;;;;;3.81;69.46;101359.66;687080;28;22377;-63
2021/03/19 01:00:13;;;;;;;7.70;6.75;;;;;;;3.83;69.53;101365.72;686623;28;23483;-63
2021/03/19 01:00:36;;;;;;;8.10;6.68;;;;;;;3.82;69.56;101364.00;684355;28;91759;-62
2021/03/19 01:00:57;;;;;;;8.00;6.50;;;;;;;3.84;69.61;101361.22;686206;28;46389;-63
2021/03/19 01:01:18;;;;;;;9.02;6.93;;;;;;;3.84;69.57;101369.25;685692;28;45278;-63
2021/03/19 01:01:39;;;;;;;7.50;6.15;;;;;;;3.84;69.63;101363.91;686799;28;23497;-63
2021/03/19 01:02:00;;;;;;;8.35;6.70;;;;;;;3.81;69.76;101364.13;686932;28;10664;-63
2021/03/19 01:02:21;;;;;;;7.93;6.47;;;;;;;3.83;69.49;101367.56;686525;28;18934;-62
2021/03/19 01:02:43;;;;;;;7.88;6.55;;;;;;;3.86;69.39;101370.00;687089;28;19906;-62
2021/03/19 01:03:05;;;;;;;9.32;6.65;;;;;;;3.85;69.50;101369.13;686458;28;29400;-63
2021/03/19 01:03:26;;;;;;;7.80;6.53;;;;;;;3.85;69.54;101374.47;686173;28;44373;-63
2021/03/19 01:03:47;;;;;;;7.35;6.40;;;;;;;3.86;69.41;101372.66;686907;28;22402;-63
2021/03/19 01:04:08;;;;;;;7.30;6.60;;;;;;;3.86;69.49;101370.84;686558;28;21449;-63
2021/03/19 01:04:30;;;;;;;7.15;6.38;;;;;;;3.87;69.38;101374.34;686553;28;24396;-63
2021/03/19 01:04:51;;;;;;;7.78;6.35;;;;;;;3.87;69.45;101377.03;686176;28;47332;-62
2021/03/19 01:05:15;;;;;;;7.93;6.22;;;;;;;3.86;69.75;101378.84;687144;28;16514;-63
2021/03/19 01:05:38;;;;;;;7.03;6.20;;;;;;;3.86;69.46;101368.16;684226;28;93220;-63
2021/03/19 01:06:01;;;;;;;7.50;6.18;;;;;;;3.86;69.39;101372.66;686727;28;15010;-63
2021/03/19 01:06:22;;;;;;;7.18;6.45;;;;;;;3.86;69.49;101370.84;685730;28;44385;-63
2021/03/19 01:06:43;;;;;;;6.75;6.13;;;;;;;3.86;69.38;101370.00;687160;28;9868;-63
2021/03/19 01:07:05;;;;;;;6.65;6.05;;;;;;;3.87;69.37;101375.22;687623;28;1162;-63
2021/03/19 01:07:27;;;;;;;7.28;6.22;;;;;;;3.86;69.36;101372.66;687384;28;1469;-62
2021/03/19 01:07:50;;;;;;;7.63;5.97;;;;;;;3.87;69.53;101377.03;687692;28;1341;-63
2021/03/19 01:08:13;;;;;;;6.90;6.15;;;;;;;3.86;69.36;101372.66;688523;28;42439;-63
2021/03/19 01:08:34;;;;;;;7.30;6.22;;;;;;;3.86;69.41;101376.19;687387;28;44734;-64
2021/03/19 01:08:55;;;;;;;7.85;6.25;;;;;;;3.87;69.39;101374.34;689144;28;22494;-63
2021/03/19 01:09:17;;;;;;;7.15;6.00;;;;;;;3.87;69.42;101374.34;689128;28;22382;-63
2021/03/19 01:09:38;;;;;;;6.70;5.85;;;;;;;3.86;69.34;101375.34;688455;28;46327;-63
2021/03/19 01:09:59;;;;;;;7.95;6.13;;;;;;;3.82;69.41;101371.19;688844;28;21515;-63
2021/03/19 01:10:23;;;;;;;6.57;5.90;;;;;;;3.86;69.42;101375.34;686914;28;22429;-64
2021/03/19 01:10:47;;;;;;;6.57;5.93;;;;;;;3.87;69.46;101380.56;683825;28;92300;-63
2021/03/19 01:11:08;;;;;;;7.28;5.85;;;;;;;3.88;69.48;101378.75;684375;28;92184;-62
2021/03/19 01:11:29;;;;;;;6.60;5.82;;;;;;;3.88;69.39;101374.22;686943;28;21271;-61
2021/03/19 01:11:50;;;;;;;6.88;6.18;;;;;;;3.88;69.43;101376.06;686949;28;21772;-64
2021/03/19 01:12:11;;;;;;;7.50;6.03;;;;;;;3.88;69.49;101376.06;686969;28;23190;-63
2021/03/19 01:12:33;;;;;;;6.72;6.03;;;;;;;3.89;69.40;101377.78;686031;28;21508;-64
2021/03/19 01:12:54;;;;;;;6.63;5.93;;;;;;;3.88;69.36;101381.41;687031;28;22466;-64
2021/03/19 01:13:15;;;;;;;6.78;5.93;;;;;;;3.88;69.24;101376.06;686455;28;37584;-65
2021/03/19 01:13:36;;;;;;;7.75;5.88;;;;;;;3.87;69.33;101388.59;686563;28;23290;-65
2021/03/19 01:13:58;;;;;;;7.57;6.43;;;;;;;3.85;69.43;101379.81;687466;28;1512;-64
2021/03/19 01:14:19;;;;;;;7.82;6.43;;;;;;;3.86;69.43;101378.84;685810;28;46370;-65
2021/03/19 01:14:40;;;;;;;7.93;6.20;;;;;;;3.85;69.29;101382.47;686088;28;21520;-64
2021/03/19 01:15:02;;;;;;;7.45;5.80;;;;;;;3.86;69.49;101378.84;687084;28;22094;-62
2021/03/19 01:15:24;;;;;;;8.70;6.50;;;;;;;3.86;69.41;101378.84;685429;28;45277;-64
2021/03/19 01:15:45;;;;;;;7.45;6.20;;;;;;;3.86;69.45;101381.53;686341;28;22386;-64
2021/03/19 01:16:06;;;;;;;7.57;6.15;;;;;;;3.85;69.34;101382.47;685446;28;46403;-64
2021/03/19 01:16:27;;;;;;;8.20;6.20;;;;;;;3.86;69.42;101381.53;686818;28;21547;-64
2021/03/19 01:16:48;;;;;;;7.53;6.15;;;;;;;3.86;69.52;101381.53;686696;28;22476;-64
2021/03/19 01:17:09;;;;;;;8.02;6.60;;;;;;;3.86;69.58;101381.53;687187;28;18645;-64
2021/03/19 01:17:30;;;;;;;7.53;6.05;;;;;;;3.86;69.58;101386.03;686587;28;22343;-64
2021/03/19 01:17:52;;;;;;;6.45;5.82;;;;;;;3.86;69.54;101378.84;686904;28;21544;-64
2021/03/19 01:18:15;;;;;;;6.35;5.75;;;;;;;3.87;69.66;101391.25;685789;28;44412;-63
2021/03/19 01:18:37;;;;;;;7.80;6.38;;;;;;;3.87;69.70;101385.03;685299;28;70199;-64
2021/03/19 01:18:58;;;;;;;7.05;6.20;;;;;;;3.88;69.57;101384.09;685694;28;46180;-65
2021/03/19 01:19:19;;;;;;;6.75;6.15;;;;;;;3.89;69.61;101385.78;686572;28;21329;-64
2021/03/19 01:19:40;;;;;;;8.13;6.60;;;;;;;3.89;69.58;101385.78;686921;28;22398;-65
2021/03/19 01:20:04;;;;;;;7.25;6.28;;;;;;;3.88;69.74;101384.91;686577;28;23669;-64
2021/03/19 01:20:26;;;;;;;7.15;6.38;;;;;;;3.89;69.66;101389.31;684144;28;93214;-64
2021/03/19 01:20:47;;;;;;;7.25;6.55;;;;;;;3.89;69.56;101378.63;685452;28;44395;-64
2021/03/19 01:21:08;;;;;;;7.47;6.65;;;;;;;3.90;69.51;101384.81;686543;28;21300;-64
2021/03/19 01:21:30;;;;;;;7.03;6.33;;;;;;;3.89;69.63;101386.63;686858;28;23511;-64
2021/03/19 01:21:51;;;;;;;7.40;6.65;;;;;;;3.91;69.59;101386.53;686201;28;45315;-64
2021/03/19 01:22:12;;;;;;;7.10;6.40;;;;;;;3.89;69.47;101386.63;686950;28;22393;-64
2021/03/19 01:22:33;;;;;;;7.03;6.32;;;;;;;3.90;69.41;101383.00;686691;28;21486;-63
2021/03/19 01:22:56;;;;;;;8.05;6.40;;;;;;;3.90;69.31;101388.34;686311;28;23436;-64
2021/03/19 01:23:17;;;;;;;6.88;6.18;;;;;;;3.90;69.54;101382.13;685006;28;67491;-64
2021/03/19 01:23:39;;;;;;;7.38;6.60;;;;;;;3.91;69.47;101390.03;686741;28;24344;-65
2021/03/19 01:24:00;;;;;;;7.43;6.53;;;;;;;3.91;69.52;101383.84;685787;28;46338;-64
2021/03/19 01:24:21;;;;;;;8.20;6.63;;;;;;;3.91;69.41;101389.19;686993;28;20882;-65
2021/03/19 01:24:43;;;;;;;9.02;6.78;;;;;;;3.90;69.24;101388.34;686570;28;21119;-64
2021/03/19 01:25:06;;;;;;;8.25;6.68;;;;;;;3.91;69.39;101384.69;686059;28;36173;-63
2021/03/19 01:25:28;;;;;;;8.25;6.50;;;;;;;3.89;69.28;101381.28;685121;28;69369;-64
2021/03/19 01:25:49;;;;;;;7.93;6.65;;;;;;;3.91;69.24;101387.38;685375;28;46555;-64
2021/03/19 01:26:11;;;;;;;8.02;6.70;;;;;;;3.89;69.21;101389.31;687442;28;930;-65
2021/03/19 01:26:32;;;;;;;7.57;6.65;;;;;;;3.90;69.29;101387.47;686958;28;17072;-65
2021/03/19 01:27:15;;;;;;;8.07;6.97;;;;;;;3.89;69.34;101386.63;686977;28;17934;-65
2021/03/19 01:27:36;;;;;;;8.73;6.90;;;;;;;3.91;69.39;101386.53;686108;28;42640;-64
2021/03/19 01:27:57;;;;;;;7.88;6.90;;;;;;;3.92;69.43;101391.75;686784;28;23383;-64
2021/03/19 01:28:18;;;;;;;8.98;6.97;;;;;;;3.90;69.31;101391.03;686480;28;23473;-64
2021/03/19 01:28:40;;;;;;;8.30;6.93;;;;;;;3.90;69.33;101382.13;686855;28;24360;-63
2021/03/19 01:29:01;;;;;;;7.43;6.60;;;;;;;3.91;69.40;101391.88;685977;28;46507;-64
2021/03/19 01:29:22;;;;;;;7.63;6.82;;;;;;;3.92;69.39;101385.56;686240;28;22420;-65
2021/03/19 01:29:43;;;;;;;8.88;7.25;;;;;;;3.91;69.43;101390.03;686565;28;22405;-65
2021/03/19 01:30:06;;;;;;;7.53;6.67;;;;;;;3.90;69.39;101391.03;687468;28;8446;-64
2021/03/19 01:30:30;;;;;;;8.85;6.80;;;;;;;3.91;69.34;101391.88;685184;28;67531;-64
2021/03/19 01:30:52;;;;;;;8.50;7.13;;;;;;;3.90;69.72;101393.69;684294;28;88495;-64
2021/03/19 01:31:13;;;;;;;8.85;6.60;;;;;;;3.91;69.36;101391.88;685893;28;44678;-64
2021/03/19 01:31:34;;;;;;;8.55;7.20;;;;;;;3.90;69.60;101380.34;686370;28;22403;-65
2021/03/19 01:31:55;;;;;;;7.75;6.95;;;;;;;3.89;69.43;101389.31;687011;28;13987;-64
2021/03/19 01:32:16;;;;;;;7.80;6.90;;;;;;;3.90;69.54;101384.81;686535;28;22364;-65
2021/03/19 01:32:38;;;;;;;8.03;6.47;;;;;;;3.91;69.40;101395.38;686619;28;23954;-64
2021/03/19 01:32:59;;;;;;;8.00;7.13;;;;;;;3.90;69.53;101388.34;685594;28;46327;-64
2021/03/19 01:33:20;;;;;;;8.15;7.28;;;;;;;3.89;69.44;101383.97;687369;28;836;-65
2021/03/19 01:33:42;;;;;;;7.88;7.03;;;;;;;3.88;69.49;101394.78;686943;28;21954;-64
2021/03/19 01:34:03;;;;;;;8.02;7.22;;;;;;;3.88;69.58;101395.63;685722;28;46348;-64
2021/03/19 01:34:24;;;;;;;8.02;7.20;;;;;;;3.89;69.62;101389.31;687319;28;15391;-65
2021/03/19 01:34:45;;;;;;;7.55;6.75;;;;;;;3.88;69.54;101390.28;686067;28;16856;-64
2021/03/19 01:35:07;;;;;;;8.60;6.40;;;;;;;3.88;69.55;101392.94;686945;28;22388;-65
2021/03/19 01:35:30;;;;;;;7.80;6.68;;;;;;;3.88;69.55;101392.09;685847;28;46325;-65
2021/03/19 01:35:51;;;;;;;8.07;7.00;;;;;;;3.87;69.76;101388.59;685117;28;50631;-64
2021/03/19 01:36:12;;;;;;;9.20;7.60;;;;;;;3.88;69.69;101394.78;686898;28;19879;-64
2021/03/19 01:36:33;;;;;;;7.82;7.03;;;;;;;3.89;69.71;101396.47;687622;28;1116;-65
2021/03/19 01:36:55;;;;;;;7.38;6.53;;;;;;;3.87;69.70;101393.94;685478;28;46178;-64
2021/03/19 01:37:16;;;;;;;8.15;7.25;;;;;;;3.87;69.55;101395.72;686808;28;23464;-66
2021/03/19 01:37:37;;;;;;;8.57;7.10;;;;;;;3.87;69.63;101398.41;686529;28;22379;-64
2021/03/19 01:38:00;;;;;;;8.43;7.20;;;;;;;3.86;69.76;101394.88;686822;28;22319;-65
2021/03/19 01:38:21;;;;;;;8.07;7.13;;;;;;;3.87;69.67;101393.06;685245;28;69460;-64
2021/03/19 01:38:43;;;;;;;8.90;7.38;;;;;;;3.87;69.75;101393.06;686807;28;22436;-65
2021/03/19 01:39:04;;;;;;;7.72;6.93;;;;;;;3.88;69.80;101395.63;685968;28;46326;-64
2021/03/19 01:39:25;;;;;;;8.27;7.22;;;;;;;3.88;69.63;101397.44;686965;28;21537;-65
2021/03/19 01:39:46;;;;;;;9.00;7.32;;;;;;;3.88;69.83;101397.44;686559;28;22380;-65
2021/03/19 01:40:10;;;;;;;10.63;7.55;;;;;;;3.87;69.65;101393.94;687517;28;4920;-65
2021/03/19 01:40:33;;;;;;;9.85;7.35;;;;;;;3.85;69.72;101390.50;684213;28;93090;-64
2021/03/19 01:40:54;;;;;;;9.65;7.90;;;;;;;3.88;69.65;101392.09;685011;28;68343;-65
2021/03/19 01:41:15;;;;;;;9.45;7.60;;;;;;;3.85;69.88;101387.81;686813;28;23490;-63
2021/03/19 01:41:37;;;;;;;8.45;7.38;;;;;;;3.87;69.78;101393.06;685754;28;21610;-65
2021/03/19 01:41:58;;;;;;;8.55;7.10;;;;;;;3.87;70.02;101393.94;686320;28;1490;-65
2021/03/19 01:42:20;;;;;;;8.38;7.45;;;;;;;3.86;69.78;101394.03;685703;28;44376;-64
2021/03/19 01:42:41;;;;;;;10.02;7.75;;;;;;;3.88;69.92;101389.44;686712;28;23429;-65
2021/03/19 01:43:03;;;;;;;9.38;7.57;;;;;;;3.87;69.87;101393.94;685459;28;19298;-65
2021/03/19 01:43:25;;;;;;;8.40;7.47;;;;;;;3.87;69.66;101395.72;684513;28;69485;-64